sensor_id;sensor_type;location;lat;lon;timestamp;P1;durP1;ratioP1;P2;durP2;ratioP2
18196;SDS011;9224;52.422;13.024;2024-03-06T00:00:11;586.30;;;212.90;;
18196;SDS011;9224;52.422;13.024;2024-03-06T00:02:38;584.33;;;211.20;;
18196;SDS011;9224;52.422;13.024;2024-03-06T00:05:07;646.28;;;259.55;;
18196;SDS011;9224;52.422;13.024;2024-03-06T00:07:34;602.70;;;219.37;;
18196;SDS011;9224;52.422;13.024;2024-03-06T00:10:01;648.22;;;255.85;;
18196;SDS011;9224;52.422;13.024;2024-03-06T00:12:30;635.87;;;245.57;;
18196;SDS011;9224;52.422;13.024;2024-03-06T00:15:05;546.63;;;189.87;;
18196;SDS011;9224;52.422;13.024;2024-03-06T00:17:33;545.47;;;190.03;;
18196;SDS011;9224;52.422;13.024;2024-03-06T00:19:59;557.20;;;199.47;;
18196;SDS011;9224;52.422;13.024;2024-03-06T00:22:27;585.40;;;211.77;;
18196;SDS011;9224;52.422;13.024;2024-03-06T00:24:54;584.43;;;207.77;;
18196;SDS011;9224;52.422;13.024;2024-03-06T00:27:21;297.77;;;141.17;;
18196;SDS011;9224;52.422;13.024;2024-03-06T00:29:47;596.87;;;218.03;;
18196;SDS011;9224;52.422;13.024;2024-03-06T00:32:14;675.78;;;287.17;;
18196;SDS011;9224;52.422;13.024;2024-03-06T00:34:41;791.63;;;422.50;;
18196;SDS011;9224;52.422;13.024;2024-03-06T00:37:07;733.58;;;363.48;;
18196;SDS011;9224;52.422;13.024;2024-03-06T00:39:36;848.95;;;463.33;;
18196;SDS011;9224;52.422;13.024;2024-03-06T00:42:02;944.38;;;332.25;;
18196;SDS011;9224;52.422;13.024;2024-03-06T00:44:30;736.88;;;376.15;;
18196;SDS011;9224;52.422;13.024;2024-03-06T00:46:56;702.55;;;322.75;;
18196;SDS011;9224;52.422;13.024;2024-03-06T00:49:23;680.25;;;295.27;;
18196;SDS011;9224;52.422;13.024;2024-03-06T00:51:50;654.78;;;266.55;;
18196;SDS011;9224;52.422;13.024;2024-03-06T00:54:16;660.85;;;269.33;;
18196;SDS011;9224;52.422;13.024;2024-03-06T00:56:44;720.15;;;348.50;;
18196;SDS011;9224;52.422;13.024;2024-03-06T00:59:11;709.30;;;331.63;;
18196;SDS011;9224;52.422;13.024;2024-03-06T01:01:38;730.55;;;367.60;;
18196;SDS011;9224;52.422;13.024;2024-03-06T01:04:04;662.05;;;274.75;;
18196;SDS011;9224;52.422;13.024;2024-03-06T01:06:31;644.10;;;258.63;;
18196;SDS011;9224;52.422;13.024;2024-03-06T01:08:58;665.55;;;284.48;;
18196;SDS011;9224;52.422;13.024;2024-03-06T01:11:25;634.72;;;250.15;;
18196;SDS011;9224;52.422;13.024;2024-03-06T01:13:53;593.57;;;213.20;;
18196;SDS011;9224;52.422;13.024;2024-03-06T01:16:20;598.70;;;216.20;;
18196;SDS011;9224;52.422;13.024;2024-03-06T01:18:46;627.97;;;244.32;;
18196;SDS011;9224;52.422;13.024;2024-03-06T01:21:13;651.30;;;263.05;;
18196;SDS011;9224;52.422;13.024;2024-03-06T01:23:40;615.05;;;230.32;;
18196;SDS011;9224;52.422;13.024;2024-03-06T01:26:07;621.37;;;233.07;;
18196;SDS011;9224;52.422;13.024;2024-03-06T01:28:33;598.70;;;217.57;;
18196;SDS011;9224;52.422;13.024;2024-03-06T01:31:03;602.00;;;219.43;;
18196;SDS011;9224;52.422;13.024;2024-03-06T01:33:30;611.80;;;231.37;;
18196;SDS011;9224;52.422;13.024;2024-03-06T01:35:56;620.13;;;235.95;;
18196;SDS011;9224;52.422;13.024;2024-03-06T01:38:23;640.33;;;252.77;;
18196;SDS011;9224;52.422;13.024;2024-03-06T01:40:50;627.88;;;242.07;;
18196;SDS011;9224;52.422;13.024;2024-03-06T01:43:18;633.85;;;248.00;;
18196;SDS011;9224;52.422;13.024;2024-03-06T01:45:47;630.50;;;245.82;;
18196;SDS011;9224;52.422;13.024;2024-03-06T01:48:15;630.58;;;248.35;;
18196;SDS011;9224;52.422;13.024;2024-03-06T01:50:42;615.97;;;229.33;;
18196;SDS011;9224;52.422;13.024;2024-03-06T01:53:08;626.80;;;246.05;;
18196;SDS011;9224;52.422;13.024;2024-03-06T01:55:36;624.37;;;245.03;;
18196;SDS011;9224;52.422;13.024;2024-03-06T01:58:03;633.13;;;247.00;;
18196;SDS011;9224;52.422;13.024;2024-03-06T02:00:31;623.87;;;240.43;;
18196;SDS011;9224;52.422;13.024;2024-03-06T02:02:58;631.03;;;249.90;;
18196;SDS011;9224;52.422;13.024;2024-03-06T02:05:27;634.60;;;252.87;;
18196;SDS011;9224;52.422;13.024;2024-03-06T02:07:56;620.10;;;241.30;;
18196;SDS011;9224;52.422;13.024;2024-03-06T02:10:23;631.60;;;244.97;;
18196;SDS011;9224;52.422;13.024;2024-03-06T02:12:51;621.50;;;239.27;;
18196;SDS011;9224;52.422;13.024;2024-03-06T02:15:19;625.50;;;243.67;;
18196;SDS011;9224;52.422;13.024;2024-03-06T02:17:46;624.03;;;242.17;;
18196;SDS011;9224;52.422;13.024;2024-03-06T02:20:12;631.38;;;250.30;;
18196;SDS011;9224;52.422;13.024;2024-03-06T02:22:42;624.47;;;243.37;;
18196;SDS011;9224;52.422;13.024;2024-03-06T02:25:08;637.85;;;253.77;;
18196;SDS011;9224;52.422;13.024;2024-03-06T02:27:35;637.23;;;254.73;;
18196;SDS011;9224;52.422;13.024;2024-03-06T02:30:03;648.37;;;264.47;;
18196;SDS011;9224;52.422;13.024;2024-03-06T02:32:30;635.50;;;248.13;;
18196;SDS011;9224;52.422;13.024;2024-03-06T02:34:56;625.27;;;239.83;;
18196;SDS011;9224;52.422;13.024;2024-03-06T02:37:23;625.63;;;243.57;;
18196;SDS011;9224;52.422;13.024;2024-03-06T02:39:52;625.17;;;241.83;;
18196;SDS011;9224;52.422;13.024;2024-03-06T02:42:18;659.70;;;274.53;;
18196;SDS011;9224;52.422;13.024;2024-03-06T02:44:45;643.50;;;255.05;;
18196;SDS011;9224;52.422;13.024;2024-03-06T02:47:11;635.93;;;247.17;;
18196;SDS011;9224;52.422;13.024;2024-03-06T02:49:38;648.15;;;260.95;;
18196;SDS011;9224;52.422;13.024;2024-03-06T02:52:05;653.78;;;267.63;;
18196;SDS011;9224;52.422;13.024;2024-03-06T02:54:32;634.50;;;246.55;;
18196;SDS011;9224;52.422;13.024;2024-03-06T02:57:00;664.00;;;276.25;;
18196;SDS011;9224;52.422;13.024;2024-03-06T02:59:26;648.25;;;256.73;;
18196;SDS011;9224;52.422;13.024;2024-03-06T03:01:53;638.47;;;247.48;;
18196;SDS011;9224;52.422;13.024;2024-03-06T03:04:20;639.17;;;248.80;;
18196;SDS011;9224;52.422;13.024;2024-03-06T03:06:46;642.30;;;253.55;;
18196;SDS011;9224;52.422;13.024;2024-03-06T03:09:13;638.88;;;245.70;;
18196;SDS011;9224;52.422;13.024;2024-03-06T03:11:41;664.50;;;273.75;;
18196;SDS011;9224;52.422;13.024;2024-03-06T03:14:09;657.78;;;262.20;;
18196;SDS011;9224;52.422;13.024;2024-03-06T03:16:36;650.90;;;258.67;;
18196;SDS011;9224;52.422;13.024;2024-03-06T03:19:02;652.90;;;260.20;;
18196;SDS011;9224;52.422;13.024;2024-03-06T03:21:30;646.75;;;252.98;;
18196;SDS011;9224;52.422;13.024;2024-03-06T03:23:57;632.85;;;241.07;;
18196;SDS011;9224;52.422;13.024;2024-03-06T03:26:24;682.17;;;291.17;;
18196;SDS011;9224;52.422;13.024;2024-03-06T03:28:50;631.38;;;242.30;;
18196;SDS011;9224;52.422;13.024;2024-03-06T03:31:18;648.30;;;259.20;;
18196;SDS011;9224;52.422;13.024;2024-03-06T03:33:46;653.97;;;262.98;;
18196;SDS011;9224;52.422;13.024;2024-03-06T03:36:13;651.35;;;261.15;;
18196;SDS011;9224;52.422;13.024;2024-03-06T03:38:40;653.60;;;266.35;;
18196;SDS011;9224;52.422;13.024;2024-03-06T03:41:07;652.17;;;263.48;;
18196;SDS011;9224;52.422;13.024;2024-03-06T03:43:34;646.60;;;255.88;;
18196;SDS011;9224;52.422;13.024;2024-03-06T03:46:00;645.90;;;254.27;;
18196;SDS011;9224;52.422;13.024;2024-03-06T03:48:28;658.13;;;274.52;;
18196;SDS011;9224;52.422;13.024;2024-03-06T03:50:55;680.33;;;293.95;;
18196;SDS011;9224;52.422;13.024;2024-03-06T03:53:22;655.65;;;269.42;;
18196;SDS011;9224;52.422;13.024;2024-03-06T03:55:48;660.72;;;275.42;;
18196;SDS011;9224;52.422;13.024;2024-03-06T03:58:15;673.90;;;290.52;;
18196;SDS011;9224;52.422;13.024;2024-03-06T04:00:42;678.08;;;295.42;;
18196;SDS011;9224;52.422;13.024;2024-03-06T04:03:09;774.35;;;393.10;;
18196;SDS011;9224;52.422;13.024;2024-03-06T04:05:37;1016.97;;;174.05;;
18196;SDS011;9224;52.422;13.024;2024-03-06T04:08:04;695.25;;;315.65;;
18196;SDS011;9224;52.422;13.024;2024-03-06T04:10:31;648.03;;;262.95;;
18196;SDS011;9224;52.422;13.024;2024-03-06T04:12:58;638.42;;;250.98;;
18196;SDS011;9224;52.422;13.024;2024-03-06T04:15:25;659.80;;;275.00;;
18196;SDS011;9224;52.422;13.024;2024-03-06T04:17:52;650.83;;;273.05;;
18196;SDS011;9224;52.422;13.024;2024-03-06T04:20:19;662.15;;;279.48;;
18196;SDS011;9224;52.422;13.024;2024-03-06T04:22:47;648.85;;;264.23;;
18196;SDS011;9224;52.422;13.024;2024-03-06T04:25:16;682.85;;;308.05;;
18196;SDS011;9224;52.422;13.024;2024-03-06T04:27:42;656.53;;;274.65;;
18196;SDS011;9224;52.422;13.024;2024-03-06T04:30:10;654.78;;;270.30;;
18196;SDS011;9224;52.422;13.024;2024-03-06T04:32:37;650.13;;;267.25;;
18196;SDS011;9224;52.422;13.024;2024-03-06T04:35:04;662.72;;;277.00;;
18196;SDS011;9224;52.422;13.024;2024-03-06T04:37:31;656.78;;;275.10;;
18196;SDS011;9224;52.422;13.024;2024-03-06T04:40:00;650.35;;;263.75;;
18196;SDS011;9224;52.422;13.024;2024-03-06T04:42:27;653.28;;;270.83;;
18196;SDS011;9224;52.422;13.024;2024-03-06T04:44:54;645.13;;;259.98;;
18196;SDS011;9224;52.422;13.024;2024-03-06T04:47:23;636.97;;;249.07;;
18196;SDS011;9224;52.422;13.024;2024-03-06T04:49:50;640.78;;;259.75;;
18196;SDS011;9224;52.422;13.024;2024-03-06T04:52:17;653.80;;;269.13;;
18196;SDS011;9224;52.422;13.024;2024-03-06T04:54:43;1001.85;;;171.85;;
18196;SDS011;9224;52.422;13.024;2024-03-06T04:57:11;650.25;;;265.38;;
18196;SDS011;9224;52.422;13.024;2024-03-06T04:59:38;656.30;;;266.70;;
18196;SDS011;9224;52.422;13.024;2024-03-06T05:02:04;665.95;;;280.35;;
18196;SDS011;9224;52.422;13.024;2024-03-06T05:04:31;665.33;;;281.70;;
18196;SDS011;9224;52.422;13.024;2024-03-06T05:06:58;633.00;;;247.43;;
18196;SDS011;9224;52.422;13.024;2024-03-06T05:09:25;654.25;;;271.38;;
18196;SDS011;9224;52.422;13.024;2024-03-06T05:11:51;653.88;;;268.52;;
18196;SDS011;9224;52.422;13.024;2024-03-06T05:14:19;649.40;;;260.50;;
18196;SDS011;9224;52.422;13.024;2024-03-06T05:16:46;652.05;;;264.02;;
18196;SDS011;9224;52.422;13.024;2024-03-06T05:19:12;663.13;;;279.77;;
18196;SDS011;9224;52.422;13.024;2024-03-06T05:21:39;660.42;;;274.13;;
18196;SDS011;9224;52.422;13.024;2024-03-06T05:24:06;663.20;;;275.25;;
18196;SDS011;9224;52.422;13.024;2024-03-06T05:26:33;705.50;;;333.13;;
18196;SDS011;9224;52.422;13.024;2024-03-06T05:28:59;963.45;;;198.10;;
18196;SDS011;9224;52.422;13.024;2024-03-06T05:31:27;984.35;;;193.10;;
18196;SDS011;9224;52.422;13.024;2024-03-06T05:33:54;935.95;;;215.15;;
18196;SDS011;9224;52.422;13.024;2024-03-06T05:36:20;917.80;;;223.45;;
18196;SDS011;9224;52.422;13.024;2024-03-06T05:38:47;971.28;;;200.40;;
18196;SDS011;9224;52.422;13.024;2024-03-06T05:41:14;953.53;;;206.57;;
18196;SDS011;9224;52.422;13.024;2024-03-06T05:43:43;963.88;;;204.77;;
18196;SDS011;9224;52.422;13.024;2024-03-06T05:46:09;897.00;;;221.48;;
18196;SDS011;9224;52.422;13.024;2024-03-06T05:48:38;899.63;;;227.23;;
18196;SDS011;9224;52.422;13.024;2024-03-06T05:51:04;914.78;;;224.70;;
18196;SDS011;9224;52.422;13.024;2024-03-06T05:53:35;913.75;;;221.50;;
18196;SDS011;9224;52.422;13.024;2024-03-06T05:56:03;927.15;;;228.60;;
18196;SDS011;9224;52.422;13.024;2024-03-06T05:58:31;844.08;;;232.10;;
18196;SDS011;9224;52.422;13.024;2024-03-06T06:00:57;916.53;;;225.10;;
18196;SDS011;9224;52.422;13.024;2024-03-06T06:03:24;900.33;;;228.32;;
18196;SDS011;9224;52.422;13.024;2024-03-06T06:05:52;901.45;;;233.75;;
18196;SDS011;9224;52.422;13.024;2024-03-06T06:08:19;903.75;;;233.57;;
18196;SDS011;9224;52.422;13.024;2024-03-06T06:10:45;947.92;;;215.95;;
18196;SDS011;9224;52.422;13.024;2024-03-06T06:13:12;896.05;;;233.18;;
18196;SDS011;9224;52.422;13.024;2024-03-06T06:15:39;929.10;;;229.10;;
18196;SDS011;9224;52.422;13.024;2024-03-06T06:18:06;926.47;;;220.98;;
18196;SDS011;9224;52.422;13.024;2024-03-06T06:20:33;885.58;;;231.98;;
18196;SDS011;9224;52.422;13.024;2024-03-06T06:23:01;925.97;;;228.63;;
18196;SDS011;9224;52.422;13.024;2024-03-06T06:25:28;931.22;;;226.68;;
18196;SDS011;9224;52.422;13.024;2024-03-06T06:27:55;934.42;;;218.95;;
18196;SDS011;9224;52.422;13.024;2024-03-06T06:30:22;937.33;;;226.10;;
18196;SDS011;9224;52.422;13.024;2024-03-06T06:32:48;935.70;;;225.20;;
18196;SDS011;9224;52.422;13.024;2024-03-06T06:35:15;928.58;;;229.15;;
18196;SDS011;9224;52.422;13.024;2024-03-06T06:37:43;910.30;;;233.32;;
18196;SDS011;9224;52.422;13.024;2024-03-06T06:40:14;931.35;;;220.00;;
18196;SDS011;9224;52.422;13.024;2024-03-06T06:42:43;930.78;;;229.35;;
18196;SDS011;9224;52.422;13.024;2024-03-06T06:45:12;915.03;;;219.85;;
18196;SDS011;9224;52.422;13.024;2024-03-06T06:47:39;926.05;;;226.55;;
18196;SDS011;9224;52.422;13.024;2024-03-06T06:50:06;918.40;;;231.98;;
18196;SDS011;9224;52.422;13.024;2024-03-06T06:52:34;910.67;;;232.70;;
18196;SDS011;9224;52.422;13.024;2024-03-06T06:55:00;914.78;;;233.27;;
18196;SDS011;9224;52.422;13.024;2024-03-06T06:57:29;914.45;;;235.40;;
18196;SDS011;9224;52.422;13.024;2024-03-06T06:59:55;919.65;;;232.65;;
18196;SDS011;9224;52.422;13.024;2024-03-06T07:02:22;894.63;;;232.60;;
18196;SDS011;9224;52.422;13.024;2024-03-06T07:04:49;898.55;;;243.75;;
18196;SDS011;9224;52.422;13.024;2024-03-06T07:07:16;757.75;;;224.35;;
18196;SDS011;9224;52.422;13.024;2024-03-06T07:09:43;852.45;;;245.40;;
18196;SDS011;9224;52.422;13.024;2024-03-06T07:12:09;853.40;;;245.93;;
18196;SDS011;9224;52.422;13.024;2024-03-06T07:14:37;910.60;;;247.32;;
18196;SDS011;9224;52.422;13.024;2024-03-06T07:17:04;929.58;;;239.07;;
18196;SDS011;9224;52.422;13.024;2024-03-06T07:19:31;898.30;;;241.13;;
18196;SDS011;9224;52.422;13.024;2024-03-06T07:21:57;912.22;;;235.98;;
18196;SDS011;9224;52.422;13.024;2024-03-06T07:24:24;897.83;;;237.65;;
18196;SDS011;9224;52.422;13.024;2024-03-06T07:26:51;897.42;;;241.48;;
18196;SDS011;9224;52.422;13.024;2024-03-06T07:29:17;900.83;;;247.57;;
18196;SDS011;9224;52.422;13.024;2024-03-06T07:31:45;893.55;;;247.35;;
18196;SDS011;9224;52.422;13.024;2024-03-06T07:34:12;851.08;;;250.05;;
18196;SDS011;9224;52.422;13.024;2024-03-06T07:36:39;901.95;;;240.77;;
18196;SDS011;9224;52.422;13.024;2024-03-06T07:39:06;894.45;;;252.50;;
18196;SDS011;9224;52.422;13.024;2024-03-06T07:41:33;850.03;;;252.57;;
18196;SDS011;9224;52.422;13.024;2024-03-06T07:44:00;785.88;;;241.70;;
18196;SDS011;9224;52.422;13.024;2024-03-06T07:46:27;815.08;;;251.75;;
18196;SDS011;9224;52.422;13.024;2024-03-06T07:48:55;760.42;;;240.70;;
18196;SDS011;9224;52.422;13.024;2024-03-06T07:51:23;697.25;;;213.45;;
18196;SDS011;9224;52.422;13.024;2024-03-06T07:53:50;683.75;;;200.55;;
18196;SDS011;9224;52.422;13.024;2024-03-06T07:56:17;731.38;;;229.63;;
18196;SDS011;9224;52.422;13.024;2024-03-06T07:58:44;683.42;;;203.65;;
18196;SDS011;9224;52.422;13.024;2024-03-06T08:01:10;683.63;;;199.02;;
18196;SDS011;9224;52.422;13.024;2024-03-06T08:03:38;683.25;;;201.13;;
18196;SDS011;9224;52.422;13.024;2024-03-06T08:06:07;689.15;;;206.15;;
18196;SDS011;9224;52.422;13.024;2024-03-06T08:08:33;677.75;;;198.68;;
18196;SDS011;9224;52.422;13.024;2024-03-06T08:11:00;733.15;;;238.13;;
18196;SDS011;9224;52.422;13.024;2024-03-06T08:13:27;708.33;;;227.93;;
18196;SDS011;9224;52.422;13.024;2024-03-06T08:15:54;666.22;;;196.30;;
18196;SDS011;9224;52.422;13.024;2024-03-06T08:18:21;690.67;;;208.68;;
18196;SDS011;9224;52.422;13.024;2024-03-06T08:20:47;638.13;;;186.13;;
18196;SDS011;9224;52.422;13.024;2024-03-06T08:23:15;716.72;;;227.13;;
18196;SDS011;9224;52.422;13.024;2024-03-06T08:25:42;618.38;;;181.55;;
18196;SDS011;9224;52.422;13.024;2024-03-06T08:28:08;684.05;;;199.38;;
18196;SDS011;9224;52.422;13.024;2024-03-06T08:30:35;810.00;;;258.27;;
18196;SDS011;9224;52.422;13.024;2024-03-06T08:33:02;785.08;;;257.80;;
18196;SDS011;9224;52.422;13.024;2024-03-06T08:35:29;848.45;;;260.88;;
18196;SDS011;9224;52.422;13.024;2024-03-06T08:37:56;807.03;;;267.48;;
18196;SDS011;9224;52.422;13.024;2024-03-06T08:40:24;766.55;;;258.05;;
18196;SDS011;9224;52.422;13.024;2024-03-06T08:42:52;700.40;;;224.70;;
18196;SDS011;9224;52.422;13.024;2024-03-06T08:45:19;693.83;;;210.70;;
18196;SDS011;9224;52.422;13.024;2024-03-06T08:47:46;725.15;;;245.88;;
18196;SDS011;9224;52.422;13.024;2024-03-06T08:50:13;841.05;;;269.83;;
18196;SDS011;9224;52.422;13.024;2024-03-06T08:52:40;846.75;;;269.67;;
18196;SDS011;9224;52.422;13.024;2024-03-06T08:55:07;902.70;;;259.88;;
18196;SDS011;9224;52.422;13.024;2024-03-06T08:57:36;905.95;;;256.65;;
18196;SDS011;9224;52.422;13.024;2024-03-06T09:00:03;922.63;;;246.15;;
18196;SDS011;9224;52.422;13.024;2024-03-06T09:02:33;908.00;;;258.90;;
18196;SDS011;9224;52.422;13.024;2024-03-06T09:05:00;745.63;;;261.85;;
18196;SDS011;9224;52.422;13.024;2024-03-06T09:07:29;739.63;;;262.63;;
18196;SDS011;9224;52.422;13.024;2024-03-06T09:09:56;760.22;;;271.02;;
18196;SDS011;9224;52.422;13.024;2024-03-06T09:12:23;746.03;;;265.17;;
18196;SDS011;9224;52.422;13.024;2024-03-06T09:14:51;743.85;;;267.55;;
18196;SDS011;9224;52.422;13.024;2024-03-06T09:17:17;696.20;;;244.20;;
18196;SDS011;9224;52.422;13.024;2024-03-06T09:19:44;703.22;;;252.48;;
18196;SDS011;9224;52.422;13.024;2024-03-06T09:25:24;712.60;;;260.08;;
18196;SDS011;9224;52.422;13.024;2024-03-06T09:27:50;742.72;;;278.55;;
18196;SDS011;9224;52.422;13.024;2024-03-06T09:30:18;727.55;;;274.75;;
18196;SDS011;9224;52.422;13.024;2024-03-06T09:32:45;699.28;;;262.35;;
18196;SDS011;9224;52.422;13.024;2024-03-06T09:35:12;712.50;;;275.33;;
18196;SDS011;9224;52.422;13.024;2024-03-06T09:37:42;691.03;;;263.00;;
18196;SDS011;9224;52.422;13.024;2024-03-06T09:40:09;703.85;;;260.52;;
18196;SDS011;9224;52.422;13.024;2024-03-06T09:42:36;704.72;;;264.98;;
18196;SDS011;9224;52.422;13.024;2024-03-06T09:45:04;701.08;;;239.52;;
18196;SDS011;9224;52.422;13.024;2024-03-06T09:47:32;684.65;;;235.35;;
18196;SDS011;9224;52.422;13.024;2024-03-06T09:50:00;684.83;;;230.52;;
18196;SDS011;9224;52.422;13.024;2024-03-06T09:52:31;683.67;;;228.98;;
18196;SDS011;9224;52.422;13.024;2024-03-06T09:54:58;680.90;;;228.75;;
18196;SDS011;9224;52.422;13.024;2024-03-06T09:57:24;666.30;;;225.73;;
18196;SDS011;9224;52.422;13.024;2024-03-06T09:59:51;659.38;;;219.32;;
18196;SDS011;9224;52.422;13.024;2024-03-06T10:02:19;681.83;;;236.73;;
18196;SDS011;9224;52.422;13.024;2024-03-06T10:04:56;666.47;;;219.10;;
18196;SDS011;9224;52.422;13.024;2024-03-06T10:07:23;663.38;;;220.05;;
18196;SDS011;9224;52.422;13.024;2024-03-06T10:09:52;660.22;;;221.25;;
18196;SDS011;9224;52.422;13.024;2024-03-06T10:12:30;649.38;;;223.85;;
18196;SDS011;9224;52.422;13.024;2024-03-06T10:15:13;656.95;;;217.70;;
18196;SDS011;9224;52.422;13.024;2024-03-06T10:17:40;650.55;;;221.75;;
18196;SDS011;9224;52.422;13.024;2024-03-06T10:20:17;663.53;;;228.43;;
18196;SDS011;9224;52.422;13.024;2024-03-06T10:22:47;664.92;;;228.57;;
18196;SDS011;9224;52.422;13.024;2024-03-06T10:25:18;654.10;;;225.10;;
18196;SDS011;9224;52.422;13.024;2024-03-06T10:27:45;666.73;;;236.13;;
18196;SDS011;9224;52.422;13.024;2024-03-06T10:30:12;666.97;;;231.10;;
18196;SDS011;9224;52.422;13.024;2024-03-06T10:32:41;661.88;;;228.73;;
18196;SDS011;9224;52.422;13.024;2024-03-06T10:35:17;654.63;;;223.60;;
18196;SDS011;9224;52.422;13.024;2024-03-06T10:37:46;648.33;;;219.90;;
18196;SDS011;9224;52.422;13.024;2024-03-06T10:40:14;666.97;;;237.48;;
18196;SDS011;9224;52.422;13.024;2024-03-06T10:42:42;647.58;;;228.48;;
18196;SDS011;9224;52.422;13.024;2024-03-06T10:45:08;644.63;;;236.37;;
18196;SDS011;9224;52.422;13.024;2024-03-06T10:47:40;680.60;;;213.50;;
18196;SDS011;9224;52.422;13.024;2024-03-06T10:51:26;618.67;;;274.50;;
18196;SDS011;9224;52.422;13.024;2024-03-06T10:53:31;488.67;;;195.07;;
18196;SDS011;9224;52.422;13.024;2024-03-06T10:56:00;399.77;;;169.07;;
18196;SDS011;9224;52.422;13.024;2024-03-06T10:58:28;493.63;;;201.67;;
18196;SDS011;9224;52.422;13.024;2024-03-06T11:00:55;451.73;;;185.70;;
18196;SDS011;9224;52.422;13.024;2024-03-06T11:03:23;492.03;;;199.40;;
18196;SDS011;9224;52.422;13.024;2024-03-06T11:05:50;582.63;;;251.37;;
18196;SDS011;9224;52.422;13.024;2024-03-06T11:08:17;366.33;;;158.13;;
18196;SDS011;9224;52.422;13.024;2024-03-06T11:10:45;410.70;;;170.10;;
18196;SDS011;9224;52.422;13.024;2024-03-06T11:13:20;372.43;;;160.07;;
18196;SDS011;9224;52.422;13.024;2024-03-06T11:15:49;341.47;;;151.57;;
18196;SDS011;9224;52.422;13.024;2024-03-06T11:24:14;472.93;;;190.83;;
18196;SDS011;9224;52.422;13.024;2024-03-06T11:26:45;441.67;;;181.90;;
18196;SDS011;9224;52.422;13.024;2024-03-06T11:29:13;513.37;;;210.90;;
18196;SDS011;9224;52.422;13.024;2024-03-06T11:31:55;487.50;;;199.43;;
18196;SDS011;9224;52.422;13.024;2024-03-06T11:34:35;514.57;;;214.47;;
18196;SDS011;9224;52.422;13.024;2024-03-06T11:37:03;351.37;;;153.23;;
18196;SDS011;9224;52.422;13.024;2024-03-06T11:39:34;360.57;;;156.30;;
18196;SDS011;9224;52.422;13.024;2024-03-06T11:42:03;537.97;;;232.07;;
18196;SDS011;9224;52.422;13.024;2024-03-06T11:44:33;383.23;;;163.20;;
18196;SDS011;9224;52.422;13.024;2024-03-06T11:47:03;365.37;;;157.40;;
18196;SDS011;9224;52.422;13.024;2024-03-06T11:49:32;441.83;;;180.63;;
18196;SDS011;9224;52.422;13.024;2024-03-06T11:52:01;348.53;;;152.47;;
18196;SDS011;9224;52.422;13.024;2024-03-06T11:54:29;373.10;;;158.67;;
18196;SDS011;9224;52.422;13.024;2024-03-06T11:56:57;381.10;;;161.37;;
18196;SDS011;9224;52.422;13.024;2024-03-06T11:59:26;338.23;;;151.90;;
18196;SDS011;9224;52.422;13.024;2024-03-06T12:01:54;501.63;;;205.33;;
18196;SDS011;9224;52.422;13.024;2024-03-06T12:04:23;522.63;;;221.07;;
18196;SDS011;9224;52.422;13.024;2024-03-06T12:06:50;551.43;;;230.87;;
18196;SDS011;9224;52.422;13.024;2024-03-06T12:09:17;368.17;;;157.60;;
18196;SDS011;9224;52.422;13.024;2024-03-06T12:11:44;513.97;;;211.87;;
18196;SDS011;9224;52.422;13.024;2024-03-06T12:14:14;353.40;;;154.10;;
18196;SDS011;9224;52.422;13.024;2024-03-06T12:16:44;375.90;;;158.10;;
18196;SDS011;9224;52.422;13.024;2024-03-06T12:19:41;368.67;;;161.33;;
18196;SDS011;9224;52.422;13.024;2024-03-06T12:22:53;383.33;;;157.83;;
18196;SDS011;9224;52.422;13.024;2024-03-06T12:25:21;381.77;;;159.13;;
18196;SDS011;9224;52.422;13.024;2024-03-06T12:27:49;500.87;;;203.43;;
18196;SDS011;9224;52.422;13.024;2024-03-06T12:30:17;357.67;;;155.00;;
18196;SDS011;9224;52.422;13.024;2024-03-06T12:32:55;354.23;;;155.93;;
18196;SDS011;9224;52.422;13.024;2024-03-06T12:35:23;410.17;;;174.77;;
18196;SDS011;9224;52.422;13.024;2024-03-06T12:37:50;346.57;;;155.23;;
18196;SDS011;9224;52.422;13.024;2024-03-06T12:40:17;373.90;;;164.53;;
18196;SDS011;9224;52.422;13.024;2024-03-06T12:42:44;406.60;;;176.77;;
18196;SDS011;9224;52.422;13.024;2024-03-06T12:45:11;367.97;;;164.83;;
18196;SDS011;9224;52.422;13.024;2024-03-06T12:47:40;346.50;;;155.93;;
18196;SDS011;9224;52.422;13.024;2024-03-06T12:50:08;298.33;;;149.23;;
18196;SDS011;9224;52.422;13.024;2024-03-06T12:52:35;345.47;;;156.50;;
18196;SDS011;9224;52.422;13.024;2024-03-06T12:55:02;306.37;;;149.83;;
18196;SDS011;9224;52.422;13.024;2024-03-06T12:57:30;296.57;;;148.50;;
18196;SDS011;9224;52.422;13.024;2024-03-06T12:59:57;302.80;;;150.17;;
18196;SDS011;9224;52.422;13.024;2024-03-06T13:02:24;294.33;;;149.17;;
18196;SDS011;9224;52.422;13.024;2024-03-06T13:04:51;290.10;;;147.43;;
18196;SDS011;9224;52.422;13.024;2024-03-06T13:07:20;312.90;;;148.50;;
18196;SDS011;9224;52.422;13.024;2024-03-06T13:09:46;278.67;;;143.77;;
18196;SDS011;9224;52.422;13.024;2024-03-06T13:12:14;281.23;;;140.70;;
18196;SDS011;9224;52.422;13.024;2024-03-06T13:14:40;294.90;;;143.73;;
18196;SDS011;9224;52.422;13.024;2024-03-06T13:17:07;319.27;;;148.93;;
18196;SDS011;9224;52.422;13.024;2024-03-06T13:19:34;338.07;;;152.37;;
18196;SDS011;9224;52.422;13.024;2024-03-06T13:22:00;290.47;;;143.57;;
18196;SDS011;9224;52.422;13.024;2024-03-06T13:24:28;270.20;;;141.53;;
18196;SDS011;9224;52.422;13.024;2024-03-06T13:26:55;263.63;;;140.03;;
18196;SDS011;9224;52.422;13.024;2024-03-06T13:29:22;273.40;;;142.27;;
18196;SDS011;9224;52.422;13.024;2024-03-06T13:31:48;296.60;;;146.20;;
18196;SDS011;9224;52.422;13.024;2024-03-06T13:34:15;265.53;;;140.23;;
18196;SDS011;9224;52.422;13.024;2024-03-06T13:36:42;299.90;;;150.53;;
18196;SDS011;9224;52.422;13.024;2024-03-06T13:39:09;269.53;;;142.50;;
18196;SDS011;9224;52.422;13.024;2024-03-06T13:41:37;309.23;;;148.57;;
18196;SDS011;9224;52.422;13.024;2024-03-06T13:44:05;311.90;;;148.53;;
18196;SDS011;9224;52.422;13.024;2024-03-06T13:46:32;254.33;;;138.03;;
18196;SDS011;9224;52.422;13.024;2024-03-06T13:48:59;344.67;;;152.27;;
18196;SDS011;9224;52.422;13.024;2024-03-06T13:51:26;326.20;;;148.90;;
18196;SDS011;9224;52.422;13.024;2024-03-06T13:53:53;245.67;;;137.10;;
18196;SDS011;9224;52.422;13.024;2024-03-06T13:56:20;325.90;;;148.90;;
18196;SDS011;9224;52.422;13.024;2024-03-06T13:58:48;293.27;;;144.67;;
18196;SDS011;9224;52.422;13.024;2024-03-06T14:01:14;272.23;;;141.20;;
18196;SDS011;9224;52.422;13.024;2024-03-06T14:03:41;268.97;;;140.03;;
18196;SDS011;9224;52.422;13.024;2024-03-06T14:06:08;274.97;;;141.43;;
18196;SDS011;9224;52.422;13.024;2024-03-06T14:08:35;299.67;;;144.67;;